Independence, Ohio
Current Conditions -  °F | °C
As of 7:53 AM on Sunday 23 Nov 2014 (Local Time) from KBKL Reporting Station
Overcast Overcast  
Wind Chill: 40°   Ceiling: 3800
Heat Index: 45°   Visibility: 10mi
Dew Point: 40°   Wind: 10mph
Humidity: 82%   Direction: 150°SSE
Pressure: 30"   Gusts: NA
Location:  41.38°N, 81.64°W
Report Text: KBKL 231253Z 15009KT 10SM BKN038 OVC045 07/04 A3000 RMK AO2 RAE14 SLP161 P0001 T00720044
Loading
Personal Weather Stations






























Interactive Weather Map New forecast layout! Learn more

10-Day Weather Forecast

Advertisements
Track Severe Weather on mobile